sensor_id;sensor_type;location;lat;lon;timestamp;P1;durP1;ratioP1;P2;durP2;ratioP2
1262;SDS011;62267;50.112;8.704;2023-02-12T00:01:49;34.90;;;22.50;;
1262;SDS011;62267;50.112;8.704;2023-02-12T00:04:17;37.50;;;24.20;;
1262;SDS011;62267;50.112;8.704;2023-02-12T00:06:44;38.33;;;23.83;;
1262;SDS011;62267;50.112;8.704;2023-02-12T00:09:12;42.63;;;25.50;;
1262;SDS011;62267;50.112;8.704;2023-02-12T00:11:40;37.83;;;23.17;;
1262;SDS011;62267;50.112;8.704;2023-02-12T00:14:08;38.83;;;24.20;;
1262;SDS011;62267;50.112;8.704;2023-02-12T00:16:36;35.93;;;23.90;;
1262;SDS011;62267;50.112;8.704;2023-02-12T00:19:03;39.20;;;24.47;;
1262;SDS011;62267;50.112;8.704;2023-02-12T00:21:31;38.17;;;24.50;;
1262;SDS011;62267;50.112;8.704;2023-02-12T00:24:01;38.80;;;24.73;;
1262;SDS011;62267;50.112;8.704;2023-02-12T00:26:31;35.10;;;24.33;;
1262;SDS011;62267;50.112;8.704;2023-02-12T00:29:01;39.70;;;22.77;;
1262;SDS011;62267;50.112;8.704;2023-02-12T00:31:30;34.27;;;22.40;;
1262;SDS011;62267;50.112;8.704;2023-02-12T00:34:00;39.70;;;24.97;;
1262;SDS011;62267;50.112;8.704;2023-02-12T00:36:29;40.60;;;25.67;;
1262;SDS011;62267;50.112;8.704;2023-02-12T00:38:58;41.10;;;25.43;;
1262;SDS011;62267;50.112;8.704;2023-02-12T00:41:27;38.47;;;23.70;;
1262;SDS011;62267;50.112;8.704;2023-02-12T00:43:55;39.80;;;25.20;;
1262;SDS011;62267;50.112;8.704;2023-02-12T00:46:23;38.53;;;23.50;;
1262;SDS011;62267;50.112;8.704;2023-02-12T00:48:55;37.57;;;24.10;;
1262;SDS011;62267;50.112;8.704;2023-02-12T00:51:24;36.33;;;23.40;;
1262;SDS011;62267;50.112;8.704;2023-02-12T00:53:51;39.73;;;22.10;;
1262;SDS011;62267;50.112;8.704;2023-02-12T00:56:19;35.90;;;22.37;;
1262;SDS011;62267;50.112;8.704;2023-02-12T00:58:49;34.53;;;22.83;;
1262;SDS011;62267;50.112;8.704;2023-02-12T01:01:16;32.67;;;21.70;;
1262;SDS011;62267;50.112;8.704;2023-02-12T01:03:45;37.03;;;22.03;;
1262;SDS011;62267;50.112;8.704;2023-02-12T01:06:13;36.77;;;21.57;;
1262;SDS011;62267;50.112;8.704;2023-02-12T01:08:41;36.90;;;23.33;;
1262;SDS011;62267;50.112;8.704;2023-02-12T01:11:11;34.10;;;23.60;;
1262;SDS011;62267;50.112;8.704;2023-02-12T01:13:40;35.17;;;23.53;;
1262;SDS011;62267;50.112;8.704;2023-02-12T01:16:15;35.10;;;23.80;;
1262;SDS011;62267;50.112;8.704;2023-02-12T01:18:45;40.00;;;24.77;;
1262;SDS011;62267;50.112;8.704;2023-02-12T01:21:16;35.13;;;22.20;;
1262;SDS011;62267;50.112;8.704;2023-02-12T01:23:46;33.10;;;22.50;;
1262;SDS011;62267;50.112;8.704;2023-02-12T01:26:14;34.10;;;23.40;;
1262;SDS011;62267;50.112;8.704;2023-02-12T01:28:43;33.73;;;23.83;;
1262;SDS011;62267;50.112;8.704;2023-02-12T01:31:14;37.67;;;22.83;;
1262;SDS011;62267;50.112;8.704;2023-02-12T01:33:48;36.20;;;22.73;;
1262;SDS011;62267;50.112;8.704;2023-02-12T01:36:25;36.40;;;24.03;;
1262;SDS011;62267;50.112;8.704;2023-02-12T01:38:52;41.43;;;26.03;;
1262;SDS011;62267;50.112;8.704;2023-02-12T01:41:22;36.83;;;24.67;;
1262;SDS011;62267;50.112;8.704;2023-02-12T01:46:40;41.33;;;27.20;;
1262;SDS011;62267;50.112;8.704;2023-02-12T01:49:11;40.00;;;25.60;;
1262;SDS011;62267;50.112;8.704;2023-02-12T01:51:44;41.20;;;26.97;;
1262;SDS011;62267;50.112;8.704;2023-02-12T01:54:13;38.10;;;25.20;;
1262;SDS011;62267;50.112;8.704;2023-02-12T01:56:42;40.60;;;26.40;;
1262;SDS011;62267;50.112;8.704;2023-02-12T01:59:13;41.00;;;27.37;;
1262;SDS011;62267;50.112;8.704;2023-02-12T02:01:40;38.37;;;26.17;;
1262;SDS011;62267;50.112;8.704;2023-02-12T02:04:09;41.37;;;23.87;;
1262;SDS011;62267;50.112;8.704;2023-02-12T02:06:46;40.07;;;24.20;;
1262;SDS011;62267;50.112;8.704;2023-02-12T02:09:16;38.83;;;24.47;;
1262;SDS011;62267;50.112;8.704;2023-02-12T02:11:44;38.57;;;24.60;;
1262;SDS011;62267;50.112;8.704;2023-02-12T02:14:33;38.00;;;24.67;;
1262;SDS011;62267;50.112;8.704;2023-02-12T02:33:21;41.83;;;26.33;;
1262;SDS011;62267;50.112;8.704;2023-02-12T02:41:15;35.57;;;26.70;;
1262;SDS011;62267;50.112;8.704;2023-02-12T02:43:48;40.67;;;26.90;;
1262;SDS011;62267;50.112;8.704;2023-02-12T02:46:19;38.90;;;27.37;;
1262;SDS011;62267;50.112;8.704;2023-02-12T02:48:51;42.13;;;26.40;;
1262;SDS011;62267;50.112;8.704;2023-02-12T02:51:21;40.77;;;27.60;;
1262;SDS011;62267;50.112;8.704;2023-02-12T02:54:02;43.37;;;28.33;;
1262;SDS011;62267;50.112;8.704;2023-02-12T02:56:32;37.53;;;24.47;;
1262;SDS011;62267;50.112;8.704;2023-02-12T02:59:06;41.17;;;26.60;;
1262;SDS011;62267;50.112;8.704;2023-02-12T03:01:38;49.07;;;27.47;;
1262;SDS011;62267;50.112;8.704;2023-02-12T03:04:13;44.90;;;27.30;;
1262;SDS011;62267;50.112;8.704;2023-02-12T03:06:43;44.40;;;26.70;;
1262;SDS011;62267;50.112;8.704;2023-02-12T03:09:30;40.67;;;28.30;;
1262;SDS011;62267;50.112;8.704;2023-02-12T03:12:02;47.23;;;29.60;;
1262;SDS011;62267;50.112;8.704;2023-02-12T03:14:32;41.53;;;27.43;;
1262;SDS011;62267;50.112;8.704;2023-02-12T03:17:19;43.50;;;27.93;;
1262;SDS011;62267;50.112;8.704;2023-02-12T03:19:54;39.20;;;25.87;;
1262;SDS011;62267;50.112;8.704;2023-02-12T03:22:35;39.67;;;25.73;;
1262;SDS011;62267;50.112;8.704;2023-02-12T03:27:57;42.30;;;27.03;;
1262;SDS011;62267;50.112;8.704;2023-02-12T03:30:37;49.27;;;31.37;;
1262;SDS011;62267;50.112;8.704;2023-02-12T03:33:10;38.20;;;25.90;;
1262;SDS011;62267;50.112;8.704;2023-02-12T03:35:44;41.60;;;27.10;;
1262;SDS011;62267;50.112;8.704;2023-02-12T03:38:34;36.30;;;24.80;;
1262;SDS011;62267;50.112;8.704;2023-02-12T03:41:23;42.73;;;27.00;;
1262;SDS011;62267;50.112;8.704;2023-02-12T03:44:05;45.13;;;26.17;;
1262;SDS011;62267;50.112;8.704;2023-02-12T03:47:10;38.97;;;25.07;;
1262;SDS011;62267;50.112;8.704;2023-02-12T03:49:31;35.13;;;23.60;;
1262;SDS011;62267;50.112;8.704;2023-02-12T03:52:00;36.37;;;26.37;;
1262;SDS011;62267;50.112;8.704;2023-02-12T03:54:33;35.77;;;25.03;;
1262;SDS011;62267;50.112;8.704;2023-02-12T03:57:06;47.13;;;27.53;;
1262;SDS011;62267;50.112;8.704;2023-02-12T03:59:36;39.20;;;26.77;;
1262;SDS011;62267;50.112;8.704;2023-02-12T04:02:08;40.03;;;24.03;;
1262;SDS011;62267;50.112;8.704;2023-02-12T04:04:47;39.40;;;25.87;;
1262;SDS011;62267;50.112;8.704;2023-02-12T04:07:16;40.90;;;25.53;;
1262;SDS011;62267;50.112;8.704;2023-02-12T04:09:45;37.87;;;25.37;;
1262;SDS011;62267;50.112;8.704;2023-02-12T04:14:54;43.00;;;26.90;;
1262;SDS011;62267;50.112;8.704;2023-02-12T04:17:29;41.33;;;25.13;;
1262;SDS011;62267;50.112;8.704;2023-02-12T04:20:06;43.80;;;27.10;;
1262;SDS011;62267;50.112;8.704;2023-02-12T04:22:52;39.03;;;25.50;;
1262;SDS011;62267;50.112;8.704;2023-02-12T04:28:07;39.93;;;24.10;;
1262;SDS011;62267;50.112;8.704;2023-02-12T04:30:50;41.80;;;27.40;;
1262;SDS011;62267;50.112;8.704;2023-02-12T04:33:26;39.93;;;25.77;;
1262;SDS011;62267;50.112;8.704;2023-02-12T04:35:59;44.87;;;25.60;;
1262;SDS011;62267;50.112;8.704;2023-02-12T04:38:33;41.33;;;25.20;;
1262;SDS011;62267;50.112;8.704;2023-02-12T04:41:04;34.47;;;23.70;;
1262;SDS011;62267;50.112;8.704;2023-02-12T04:43:33;39.47;;;24.60;;
1262;SDS011;62267;50.112;8.704;2023-02-12T04:46:03;39.77;;;26.30;;
1262;SDS011;62267;50.112;8.704;2023-02-12T04:48:31;34.80;;;22.87;;
1262;SDS011;62267;50.112;8.704;2023-02-12T04:51:02;38.33;;;25.00;;
1262;SDS011;62267;50.112;8.704;2023-02-12T04:53:30;35.70;;;24.70;;
1262;SDS011;62267;50.112;8.704;2023-02-12T04:56:01;37.37;;;25.17;;
1262;SDS011;62267;50.112;8.704;2023-02-12T04:58:29;36.57;;;24.83;;
1262;SDS011;62267;50.112;8.704;2023-02-12T05:01:02;36.83;;;24.37;;
1262;SDS011;62267;50.112;8.704;2023-02-12T05:03:29;34.10;;;25.13;;
1262;SDS011;62267;50.112;8.704;2023-02-12T05:06:05;41.30;;;24.97;;
1262;SDS011;62267;50.112;8.704;2023-02-12T05:08:35;41.30;;;25.57;;
1262;SDS011;62267;50.112;8.704;2023-02-12T05:11:06;45.70;;;26.23;;
1262;SDS011;62267;50.112;8.704;2023-02-12T05:13:35;46.77;;;28.97;;
1262;SDS011;62267;50.112;8.704;2023-02-12T05:16:06;37.97;;;25.00;;
1262;SDS011;62267;50.112;8.704;2023-02-12T05:18:36;39.43;;;25.67;;
1262;SDS011;62267;50.112;8.704;2023-02-12T05:21:04;36.77;;;25.40;;
1262;SDS011;62267;50.112;8.704;2023-02-12T05:23:33;36.27;;;25.50;;
1262;SDS011;62267;50.112;8.704;2023-02-12T05:26:02;40.47;;;23.50;;
1262;SDS011;62267;50.112;8.704;2023-02-12T05:28:31;41.83;;;27.00;;
1262;SDS011;62267;50.112;8.704;2023-02-12T05:31:04;43.03;;;25.57;;
1262;SDS011;62267;50.112;8.704;2023-02-12T05:33:36;45.10;;;27.13;;
1262;SDS011;62267;50.112;8.704;2023-02-12T05:36:05;41.40;;;25.10;;
1262;SDS011;62267;50.112;8.704;2023-02-12T05:38:35;42.10;;;26.20;;
1262;SDS011;62267;50.112;8.704;2023-02-12T05:41:07;38.33;;;26.60;;
1262;SDS011;62267;50.112;8.704;2023-02-12T05:43:36;43.83;;;29.57;;
1262;SDS011;62267;50.112;8.704;2023-02-12T05:46:07;44.30;;;29.50;;
1262;SDS011;62267;50.112;8.704;2023-02-12T05:48:36;43.63;;;28.00;;
1262;SDS011;62267;50.112;8.704;2023-02-12T05:51:05;42.20;;;25.10;;
1262;SDS011;62267;50.112;8.704;2023-02-12T05:53:51;43.67;;;28.60;;
1262;SDS011;62267;50.112;8.704;2023-02-12T05:56:21;44.27;;;26.17;;
1262;SDS011;62267;50.112;8.704;2023-02-12T05:58:54;42.77;;;28.70;;
1262;SDS011;62267;50.112;8.704;2023-02-12T06:01:23;45.60;;;27.77;;
1262;SDS011;62267;50.112;8.704;2023-02-12T06:03:57;45.23;;;26.93;;
1262;SDS011;62267;50.112;8.704;2023-02-12T06:06:25;48.23;;;28.90;;
1262;SDS011;62267;50.112;8.704;2023-02-12T06:08:55;46.50;;;27.77;;
1262;SDS011;62267;50.112;8.704;2023-02-12T06:11:22;50.13;;;29.03;;
1262;SDS011;62267;50.112;8.704;2023-02-12T06:13:50;41.97;;;28.30;;
1262;SDS011;62267;50.112;8.704;2023-02-12T06:16:22;42.57;;;27.83;;
1262;SDS011;62267;50.112;8.704;2023-02-12T06:18:52;43.77;;;27.33;;
1262;SDS011;62267;50.112;8.704;2023-02-12T06:21:22;42.73;;;26.50;;
1262;SDS011;62267;50.112;8.704;2023-02-12T06:23:51;49.40;;;28.23;;
1262;SDS011;62267;50.112;8.704;2023-02-12T06:26:19;52.90;;;30.43;;
1262;SDS011;62267;50.112;8.704;2023-02-12T06:28:48;48.10;;;27.03;;
1262;SDS011;62267;50.112;8.704;2023-02-12T06:31:21;45.53;;;29.27;;
1262;SDS011;62267;50.112;8.704;2023-02-12T06:33:50;49.80;;;30.60;;
1262;SDS011;62267;50.112;8.704;2023-02-12T06:36:19;47.87;;;28.60;;
1262;SDS011;62267;50.112;8.704;2023-02-12T06:38:47;49.10;;;29.60;;
1262;SDS011;62267;50.112;8.704;2023-02-12T06:41:19;42.80;;;26.90;;
1262;SDS011;62267;50.112;8.704;2023-02-12T06:43:50;48.40;;;29.93;;
1262;SDS011;62267;50.112;8.704;2023-02-12T06:46:20;50.30;;;29.87;;
1262;SDS011;62267;50.112;8.704;2023-02-12T06:48:56;45.60;;;27.27;;
1262;SDS011;62267;50.112;8.704;2023-02-12T06:51:25;39.83;;;25.30;;
1262;SDS011;62267;50.112;8.704;2023-02-12T06:53:55;46.27;;;27.60;;
1262;SDS011;62267;50.112;8.704;2023-02-12T06:56:25;43.00;;;29.13;;
1262;SDS011;62267;50.112;8.704;2023-02-12T06:58:54;43.17;;;26.83;;
1262;SDS011;62267;50.112;8.704;2023-02-12T07:01:24;44.90;;;28.80;;
1262;SDS011;62267;50.112;8.704;2023-02-12T07:03:53;40.73;;;26.40;;
1262;SDS011;62267;50.112;8.704;2023-02-12T07:06:24;45.17;;;29.30;;
1262;SDS011;62267;50.112;8.704;2023-02-12T07:08:53;44.17;;;28.00;;
1262;SDS011;62267;50.112;8.704;2023-02-12T07:11:24;44.50;;;27.47;;
1262;SDS011;62267;50.112;8.704;2023-02-12T07:13:51;38.47;;;26.43;;
1262;SDS011;62267;50.112;8.704;2023-02-12T07:16:21;38.33;;;26.40;;
1262;SDS011;62267;50.112;8.704;2023-02-12T07:18:49;54.57;;;26.47;;
1262;SDS011;62267;50.112;8.704;2023-02-12T07:21:18;38.93;;;26.90;;
1262;SDS011;62267;50.112;8.704;2023-02-12T07:23:47;41.53;;;27.00;;
1262;SDS011;62267;50.112;8.704;2023-02-12T07:26:17;42.13;;;29.77;;
1262;SDS011;62267;50.112;8.704;2023-02-12T07:28:48;40.57;;;27.87;;
1262;SDS011;62267;50.112;8.704;2023-02-12T07:31:20;43.53;;;29.47;;
1262;SDS011;62267;50.112;8.704;2023-02-12T07:33:52;51.10;;;29.77;;
1262;SDS011;62267;50.112;8.704;2023-02-12T07:36:22;44.80;;;29.70;;
1262;SDS011;62267;50.112;8.704;2023-02-12T07:38:50;42.37;;;27.47;;
1262;SDS011;62267;50.112;8.704;2023-02-12T07:41:20;40.40;;;27.60;;
1262;SDS011;62267;50.112;8.704;2023-02-12T07:43:56;42.70;;;27.67;;
1262;SDS011;62267;50.112;8.704;2023-02-12T07:46:30;42.83;;;28.03;;
1262;SDS011;62267;50.112;8.704;2023-02-12T07:49:00;48.73;;;28.53;;
1262;SDS011;62267;50.112;8.704;2023-02-12T07:51:30;45.90;;;28.17;;
1262;SDS011;62267;50.112;8.704;2023-02-12T07:54:02;47.90;;;31.33;;
1262;SDS011;62267;50.112;8.704;2023-02-12T07:56:32;36.83;;;26.03;;
1262;SDS011;62267;50.112;8.704;2023-02-12T07:59:15;48.67;;;30.17;;
1262;SDS011;62267;50.112;8.704;2023-02-12T08:01:49;43.73;;;28.47;;
1262;SDS011;62267;50.112;8.704;2023-02-12T08:04:24;47.97;;;28.90;;
1262;SDS011;62267;50.112;8.704;2023-02-12T08:06:53;48.00;;;29.17;;
1262;SDS011;62267;50.112;8.704;2023-02-12T08:09:22;47.60;;;29.90;;
1262;SDS011;62267;50.112;8.704;2023-02-12T08:11:51;47.13;;;30.10;;
1262;SDS011;62267;50.112;8.704;2023-02-12T08:14:20;46.40;;;31.70;;
1262;SDS011;62267;50.112;8.704;2023-02-12T08:16:49;48.60;;;29.07;;
1262;SDS011;62267;50.112;8.704;2023-02-12T08:19:17;44.20;;;29.93;;
1262;SDS011;62267;50.112;8.704;2023-02-12T08:21:52;49.00;;;30.70;;
1262;SDS011;62267;50.112;8.704;2023-02-12T08:24:21;45.67;;;30.70;;
1262;SDS011;62267;50.112;8.704;2023-02-12T08:26:53;48.13;;;29.57;;
1262;SDS011;62267;50.112;8.704;2023-02-12T08:29:25;50.00;;;30.53;;
1262;SDS011;62267;50.112;8.704;2023-02-12T08:31:58;47.67;;;32.10;;
1262;SDS011;62267;50.112;8.704;2023-02-12T08:34:28;47.60;;;30.27;;
1262;SDS011;62267;50.112;8.704;2023-02-12T08:36:59;52.10;;;32.17;;
1262;SDS011;62267;50.112;8.704;2023-02-12T08:39:30;51.97;;;31.93;;
1262;SDS011;62267;50.112;8.704;2023-02-12T08:41:59;54.97;;;34.20;;
1262;SDS011;62267;50.112;8.704;2023-02-12T08:44:27;53.47;;;34.20;;
1262;SDS011;62267;50.112;8.704;2023-02-12T08:46:58;51.37;;;32.57;;
1262;SDS011;62267;50.112;8.704;2023-02-12T08:49:27;56.57;;;34.23;;
1262;SDS011;62267;50.112;8.704;2023-02-12T08:51:55;51.07;;;32.53;;
1262;SDS011;62267;50.112;8.704;2023-02-12T08:54:29;49.67;;;32.73;;
1262;SDS011;62267;50.112;8.704;2023-02-12T08:57:01;58.27;;;34.23;;
1262;SDS011;62267;50.112;8.704;2023-02-12T08:59:30;52.00;;;34.73;;
1262;SDS011;62267;50.112;8.704;2023-02-12T09:02:01;59.87;;;34.60;;
1262;SDS011;62267;50.112;8.704;2023-02-12T09:04:36;53.97;;;33.07;;
1262;SDS011;62267;50.112;8.704;2023-02-12T09:07:06;55.47;;;32.73;;
1262;SDS011;62267;50.112;8.704;2023-02-12T09:09:36;59.87;;;36.33;;
1262;SDS011;62267;50.112;8.704;2023-02-12T09:12:07;51.27;;;32.73;;
1262;SDS011;62267;50.112;8.704;2023-02-12T09:14:36;55.03;;;33.43;;
1262;SDS011;62267;50.112;8.704;2023-02-12T09:17:11;53.23;;;34.53;;
1262;SDS011;62267;50.112;8.704;2023-02-12T09:19:45;60.57;;;34.30;;
1262;SDS011;62267;50.112;8.704;2023-02-12T09:22:18;54.33;;;35.30;;
1262;SDS011;62267;50.112;8.704;2023-02-12T09:24:47;56.73;;;35.30;;
1262;SDS011;62267;50.112;8.704;2023-02-12T09:27:14;60.30;;;36.00;;
1262;SDS011;62267;50.112;8.704;2023-02-12T09:29:41;56.77;;;34.97;;
1262;SDS011;62267;50.112;8.704;2023-02-12T09:32:08;60.60;;;36.17;;
1262;SDS011;62267;50.112;8.704;2023-02-12T09:34:36;60.63;;;37.13;;
1262;SDS011;62267;50.112;8.704;2023-02-12T09:37:04;55.10;;;35.13;;
1262;SDS011;62267;50.112;8.704;2023-02-12T09:39:32;59.77;;;37.10;;
1262;SDS011;62267;50.112;8.704;2023-02-12T09:44:43;59.53;;;35.43;;
1262;SDS011;62267;50.112;8.704;2023-02-12T09:50:29;62.00;;;35.00;;
1262;SDS011;62267;50.112;8.704;2023-02-12T09:53:29;65.33;;;36.20;;
1262;SDS011;62267;50.112;8.704;2023-02-12T09:55:57;68.83;;;36.50;;
1262;SDS011;62267;50.112;8.704;2023-02-12T09:58:37;66.03;;;35.37;;
1262;SDS011;62267;50.112;8.704;2023-02-12T10:01:09;60.70;;;36.30;;
1262;SDS011;62267;50.112;8.704;2023-02-12T10:03:37;75.33;;;39.00;;
1262;SDS011;62267;50.112;8.704;2023-02-12T10:06:28;70.80;;;39.10;;
1262;SDS011;62267;50.112;8.704;2023-02-12T10:14:37;75.80;;;40.73;;
1262;SDS011;62267;50.112;8.704;2023-02-12T10:17:12;69.83;;;38.43;;
1262;SDS011;62267;50.112;8.704;2023-02-12T10:22:42;72.90;;;38.23;;
1262;SDS011;62267;50.112;8.704;2023-02-12T10:25:25;67.50;;;37.43;;
1262;SDS011;62267;50.112;8.704;2023-02-12T10:27:56;74.97;;;38.47;;
1262;SDS011;62267;50.112;8.704;2023-02-12T10:30:34;74.23;;;35.90;;
1262;SDS011;62267;50.112;8.704;2023-02-12T10:33:04;72.33;;;37.73;;
1262;SDS011;62267;50.112;8.704;2023-02-12T10:35:33;74.73;;;36.10;;
1262;SDS011;62267;50.112;8.704;2023-02-12T10:38:06;71.07;;;36.33;;
1262;SDS011;62267;50.112;8.704;2023-02-12T10:40:42;63.27;;;35.03;;
1262;SDS011;62267;50.112;8.704;2023-02-12T10:43:16;71.37;;;36.27;;
1262;SDS011;62267;50.112;8.704;2023-02-12T10:45:43;67.53;;;35.77;;
1262;SDS011;62267;50.112;8.704;2023-02-12T10:48:20;73.00;;;37.10;;
1262;SDS011;62267;50.112;8.704;2023-02-12T10:50:55;77.30;;;38.17;;
1262;SDS011;62267;50.112;8.704;2023-02-12T10:53:32;71.57;;;37.37;;
1262;SDS011;62267;50.112;8.704;2023-02-12T10:56:09;67.53;;;37.80;;
1262;SDS011;62267;50.112;8.704;2023-02-12T10:58:49;71.43;;;40.33;;
1262;SDS011;62267;50.112;8.704;2023-02-12T11:01:26;67.43;;;38.83;;
1262;SDS011;62267;50.112;8.704;2023-02-12T11:03:54;64.07;;;35.00;;
1262;SDS011;62267;50.112;8.704;2023-02-12T11:06:24;59.43;;;36.40;;
1262;SDS011;62267;50.112;8.704;2023-02-12T11:08:53;67.60;;;36.70;;
1262;SDS011;62267;50.112;8.704;2023-02-12T11:14:05;68.27;;;37.73;;
1262;SDS011;62267;50.112;8.704;2023-02-12T11:16:35;61.20;;;36.17;;
1262;SDS011;62267;50.112;8.704;2023-02-12T11:19:05;64.80;;;35.70;;
1262;SDS011;62267;50.112;8.704;2023-02-12T11:21:34;67.13;;;37.00;;
1262;SDS011;62267;50.112;8.704;2023-02-12T11:24:27;62.30;;;38.07;;
1262;SDS011;62267;50.112;8.704;2023-02-12T11:29:41;57.40;;;34.20;;
1262;SDS011;62267;50.112;8.704;2023-02-12T11:32:14;60.90;;;37.40;;
1262;SDS011;62267;50.112;8.704;2023-02-12T11:34:50;63.27;;;38.37;;
1262;SDS011;62267;50.112;8.704;2023-02-12T11:37:29;58.37;;;36.60;;
1262;SDS011;62267;50.112;8.704;2023-02-12T11:39:58;59.50;;;36.00;;
1262;SDS011;62267;50.112;8.704;2023-02-12T11:42:26;51.90;;;34.03;;
1262;SDS011;62267;50.112;8.704;2023-02-12T11:44:57;55.53;;;33.50;;
1262;SDS011;62267;50.112;8.704;2023-02-12T11:47:26;53.53;;;32.60;;
1262;SDS011;62267;50.112;8.704;2023-02-12T11:50:07;57.93;;;32.17;;
1262;SDS011;62267;50.112;8.704;2023-02-12T11:52:37;49.50;;;31.70;;
1262;SDS011;62267;50.112;8.704;2023-02-12T11:55:28;55.60;;;34.40;;
1262;SDS011;62267;50.112;8.704;2023-02-12T11:58:03;49.93;;;33.20;;
1262;SDS011;62267;50.112;8.704;2023-02-12T12:00:36;55.60;;;32.70;;
1262;SDS011;62267;50.112;8.704;2023-02-12T12:05:54;56.07;;;31.63;;
1262;SDS011;62267;50.112;8.704;2023-02-12T12:08:32;48.73;;;30.07;;
1262;SDS011;62267;50.112;8.704;2023-02-12T12:11:08;45.47;;;29.13;;
1262;SDS011;62267;50.112;8.704;2023-02-12T12:13:42;44.50;;;27.87;;
1262;SDS011;62267;50.112;8.704;2023-02-12T12:16:19;44.23;;;27.33;;
1262;SDS011;62267;50.112;8.704;2023-02-12T12:19:13;50.90;;;29.90;;
1262;SDS011;62267;50.112;8.704;2023-02-12T12:24:59;48.30;;;28.20;;
1262;SDS011;62267;50.112;8.704;2023-02-12T12:27:41;51.63;;;32.57;;
1262;SDS011;62267;50.112;8.704;2023-02-12T12:30:43;50.20;;;30.10;;
1262;SDS011;62267;50.112;8.704;2023-02-12T12:33:25;48.30;;;28.40;;
1262;SDS011;62267;50.112;8.704;2023-02-12T12:39:09;50.57;;;29.27;;
1262;SDS011;62267;50.112;8.704;2023-02-12T12:41:44;50.93;;;29.97;;
1262;SDS011;62267;50.112;8.704;2023-02-12T12:58:32;54.93;;;33.93;;
1262;SDS011;62267;50.112;8.704;2023-02-12T13:01:20;51.63;;;31.60;;
1262;SDS011;62267;50.112;8.704;2023-02-12T13:03:55;41.40;;;26.83;;
1262;SDS011;62267;50.112;8.704;2023-02-12T13:06:32;49.90;;;27.03;;
1262;SDS011;62267;50.112;8.704;2023-02-12T13:19:46;41.97;;;26.47;;
1262;SDS011;62267;50.112;8.704;2023-02-12T13:22:26;40.60;;;24.57;;
1262;SDS011;62267;50.112;8.704;2023-02-12T13:25:00;41.80;;;24.70;;
1262;SDS011;62267;50.112;8.704;2023-02-12T13:27:36;43.60;;;27.30;;
1262;SDS011;62267;50.112;8.704;2023-02-12T13:35:42;35.80;;;22.23;;
1262;SDS011;62267;50.112;8.704;2023-02-12T13:38:25;36.30;;;22.00;;
1262;SDS011;62267;50.112;8.704;2023-02-12T13:41:03;37.53;;;23.80;;
1262;SDS011;62267;50.112;8.704;2023-02-12T13:44:17;36.00;;;21.70;;
1262;SDS011;62267;50.112;8.704;2023-02-12T13:46:43;34.53;;;21.60;;
1262;SDS011;62267;50.112;8.704;2023-02-12T13:52:00;30.93;;;19.93;;
1262;SDS011;62267;50.112;8.704;2023-02-12T13:56:59;26.93;;;18.57;;
1262;SDS011;62267;50.112;8.704;2023-02-12T14:02:00;28.10;;;17.77;;
1262;SDS011;62267;50.112;8.704;2023-02-12T14:04:32;36.83;;;22.03;;
1262;SDS011;62267;50.112;8.704;2023-02-12T14:07:01;29.00;;;18.10;;
1262;SDS011;62267;50.112;8.704;2023-02-12T14:09:45;28.40;;;16.87;;
1262;SDS011;62267;50.112;8.704;2023-02-12T14:15:08;26.50;;;17.43;;
1262;SDS011;62267;50.112;8.704;2023-02-12T14:17:53;22.77;;;17.10;;
1262;SDS011;62267;50.112;8.704;2023-02-12T14:25:38;24.60;;;16.83;;
1262;SDS011;62267;50.112;8.704;2023-02-12T14:28:09;22.20;;;16.97;;
1262;SDS011;62267;50.112;8.704;2023-02-12T14:30:40;24.43;;;17.80;;
1262;SDS011;62267;50.112;8.704;2023-02-12T14:33:21;22.97;;;15.30;;
1262;SDS011;62267;50.112;8.704;2023-02-12T14:36:11;26.70;;;17.00;;
1262;SDS011;62267;50.112;8.704;2023-02-12T14:44:35;26.83;;;17.27;;
1262;SDS011;62267;50.112;8.704;2023-02-12T14:47:08;24.60;;;15.70;;
1262;SDS011;62267;50.112;8.704;2023-02-12T14:49:49;25.00;;;15.70;;
1262;SDS011;62267;50.112;8.704;2023-02-12T14:52:26;24.80;;;16.83;;
1262;SDS011;62267;50.112;8.704;2023-02-12T14:55:06;24.70;;;15.40;;
1262;SDS011;62267;50.112;8.704;2023-02-12T14:57:39;22.67;;;15.30;;
1262;SDS011;62267;50.112;8.704;2023-02-12T15:05:21;21.93;;;13.30;;
1262;SDS011;62267;50.112;8.704;2023-02-12T15:07:52;20.10;;;12.50;;
1262;SDS011;62267;50.112;8.704;2023-02-12T15:10:22;20.30;;;13.50;;
1262;SDS011;62267;50.112;8.704;2023-02-12T15:15:43;22.57;;;13.60;;
1262;SDS011;62267;50.112;8.704;2023-02-12T15:18:34;26.53;;;15.17;;
1262;SDS011;62267;50.112;8.704;2023-02-12T15:21:14;23.87;;;13.93;;
1262;SDS011;62267;50.112;8.704;2023-02-12T15:26:41;21.53;;;12.90;;
1262;SDS011;62267;50.112;8.704;2023-02-12T15:29:27;22.10;;;13.80;;
1262;SDS011;62267;50.112;8.704;2023-02-12T15:32:01;23.63;;;15.60;;
1262;SDS011;62267;50.112;8.704;2023-02-12T15:34:33;21.40;;;12.87;;
1262;SDS011;62267;50.112;8.704;2023-02-12T15:37:21;25.60;;;15.13;;
1262;SDS011;62267;50.112;8.704;2023-02-12T15:39:51;18.80;;;12.83;;
1262;SDS011;62267;50.112;8.704;2023-02-12T15:42:37;21.33;;;13.10;;
1262;SDS011;62267;50.112;8.704;2023-02-12T15:45:19;21.00;;;13.03;;
1262;SDS011;62267;50.112;8.704;2023-02-12T15:48:00;20.47;;;14.10;;
1262;SDS011;62267;50.112;8.704;2023-02-12T15:50:32;26.50;;;14.13;;
1262;SDS011;62267;50.112;8.704;2023-02-12T15:53:02;23.80;;;13.67;;
1262;SDS011;62267;50.112;8.704;2023-02-12T15:55:33;19.93;;;12.57;;
1262;SDS011;62267;50.112;8.704;2023-02-12T15:58:01;22.37;;;14.33;;
1262;SDS011;62267;50.112;8.704;2023-02-12T16:00:40;22.20;;;13.47;;
1262;SDS011;62267;50.112;8.704;2023-02-12T16:03:42;26.50;;;14.30;;
1262;SDS011;62267;50.112;8.704;2023-02-12T16:06:12;26.83;;;15.40;;
1262;SDS011;62267;50.112;8.704;2023-02-12T16:08:43;23.17;;;15.20;;
1262;SDS011;62267;50.112;8.704;2023-02-12T16:11:11;21.57;;;13.77;;
1262;SDS011;62267;50.112;8.704;2023-02-12T16:13:46;23.73;;;14.40;;
1262;SDS011;62267;50.112;8.704;2023-02-12T16:21:36;24.07;;;14.37;;
1262;SDS011;62267;50.112;8.704;2023-02-12T16:24:04;25.50;;;15.47;;
1262;SDS011;62267;50.112;8.704;2023-02-12T16:26:32;24.07;;;15.20;;
1262;SDS011;62267;50.112;8.704;2023-02-12T16:29:02;25.87;;;16.60;;
1262;SDS011;62267;50.112;8.704;2023-02-12T16:31:31;24.47;;;14.53;;
1262;SDS011;62267;50.112;8.704;2023-02-12T16:34:00;26.60;;;15.27;;
1262;SDS011;62267;50.112;8.704;2023-02-12T16:36:47;28.10;;;17.90;;
1262;SDS011;62267;50.112;8.704;2023-02-12T16:42:26;27.60;;;15.63;;
1262;SDS011;62267;50.112;8.704;2023-02-12T16:47:50;26.47;;;15.80;;
1262;SDS011;62267;50.112;8.704;2023-02-12T16:50:21;32.63;;;16.60;;
1262;SDS011;62267;50.112;8.704;2023-02-12T16:52:58;35.10;;;17.83;;
1262;SDS011;62267;50.112;8.704;2023-02-12T16:55:28;22.07;;;14.20;;
1262;SDS011;62267;50.112;8.704;2023-02-12T16:57:56;23.73;;;14.70;;
1262;SDS011;62267;50.112;8.704;2023-02-12T17:00:23;28.70;;;15.63;;
1262;SDS011;62267;50.112;8.704;2023-02-12T17:02:54;29.63;;;18.60;;
1262;SDS011;62267;50.112;8.704;2023-02-12T17:05:27;24.80;;;15.67;;
1262;SDS011;62267;50.112;8.704;2023-02-12T17:07:54;27.77;;;15.63;;
1262;SDS011;62267;50.112;8.704;2023-02-12T17:10:22;24.07;;;16.07;;
1262;SDS011;62267;50.112;8.704;2023-02-12T17:12:52;28.10;;;15.90;;
1262;SDS011;62267;50.112;8.704;2023-02-12T17:15:21;25.70;;;15.97;;
1262;SDS011;62267;50.112;8.704;2023-02-12T17:17:52;26.63;;;16.00;;
1262;SDS011;62267;50.112;8.704;2023-02-12T17:20:23;26.70;;;16.33;;
1262;SDS011;62267;50.112;8.704;2023-02-12T17:22:51;25.23;;;14.60;;